Terminal Aerodrome Forecast
Issued by NWS

Home | Current Version | Previous Version | Text Only | Print | Product List | Glossary On
Versions: 1 2 3 4 5 6 7 8 9 10 11 12 13 14 15 16 17 18 19 20 21 22
000
FTUS46 KLOX 110000 CCA
TAFSBA
TAF COR
KSBA 110000Z 1100/1124 26006KT 3SM HZ FU BKN040
     FM110200 VRB03KT 4SM FU BKN060
     FM111600 VRB03KT 2SM FU BKN040
     FM112100 25008KT 2SM FU BKN040=

USA.gov is the U.S. government's official web portal to all federal, state and local government web resources and services.